createdAt,value
2023-04-09T00:00:37.140Z,99355.53
2023-04-09T00:03:03.264Z,99360.06
2023-04-09T00:05:29.411Z,99357.38
2023-04-09T00:07:55.512Z,99352.03
2023-04-09T00:10:21.605Z,99360.06
2023-04-09T00:12:47.698Z,99355.53
2023-04-09T00:15:24.111Z,99352.03
2023-04-09T00:17:56.611Z,99352.03
2023-04-09T00:20:22.735Z,99360.06
2023-04-09T00:22:48.829Z,99346.69
2023-04-09T00:25:14.974Z,99353.72
2023-04-09T00:27:41.085Z,99346.69
2023-04-09T00:30:07.179Z,99352.84
2023-04-09T00:32:33.311Z,99345.84
2023-04-09T00:34:59.411Z,99343.00
2023-04-09T00:37:25.500Z,99344.81
2023-04-09T00:39:52.014Z,99340.50
2023-04-09T00:42:18.147Z,99347.50
2023-04-09T00:44:44.249Z,99344.00
2023-04-09T00:47:10.367Z,99352.84
2023-04-09T00:49:36.475Z,99343.00
2023-04-09T00:52:02.561Z,99346.69
2023-04-09T00:54:28.668Z,99340.50
2023-04-09T00:56:54.767Z,99342.16
2023-04-09T00:59:20.858Z,99350.19
2023-04-09T01:01:46.998Z,99341.34
2023-04-09T01:04:13.116Z,99343.00
2023-04-09T01:06:39.225Z,99339.47
2023-04-09T01:09:05.335Z,99338.66
2023-04-09T01:11:31.441Z,99338.66
2023-04-09T01:13:57.577Z,99343.00
2023-04-09T01:16:23.742Z,99337.84
2023-04-09T01:18:50.202Z,99334.34
2023-04-09T01:21:16.496Z,99335.97
2023-04-09T01:23:42.663Z,99342.34
2023-04-09T01:26:08.775Z,99340.50
2023-04-09T01:28:34.885Z,99335.97
2023-04-09T01:31:01.127Z,99347.50
2023-04-09T01:33:27.263Z,99335.97
2023-04-09T01:35:53.387Z,99339.69
2023-04-09T01:38:19.558Z,99340.50
2023-04-09T01:40:45.661Z,99334.34
2023-04-09T01:43:11.746Z,99340.50
2023-04-09T01:45:37.869Z,99340.50
2023-04-09T01:48:03.982Z,99340.50
2023-04-09T01:50:30.098Z,99331.66
2023-04-09T01:52:56.366Z,99337.00
2023-04-09T01:55:22.461Z,99335.16
2023-04-09T01:57:48.573Z,99329.97
2023-04-09T02:00:14.701Z,99335.97
2023-04-09T02:02:40.921Z,99334.34
2023-04-09T02:05:07.132Z,99338.66
2023-04-09T02:07:33.237Z,99334.34
2023-04-09T02:09:59.314Z,99333.31
2023-04-09T02:12:25.401Z,99335.34
2023-04-09T02:14:51.531Z,99330.84
2023-04-09T02:17:17.639Z,99329.97
2023-04-09T02:19:43.739Z,99335.34
2023-04-09T02:22:09.858Z,99327.31
2023-04-09T02:24:35.965Z,99334.50
2023-04-09T02:27:02.058Z,99330.19
2023-04-09T02:29:28.169Z,99334.50
2023-04-09T02:31:54.244Z,99331.00
2023-04-09T02:34:20.339Z,99327.31
2023-04-09T02:36:46.455Z,99329.16
2023-04-09T02:39:12.548Z,99321.13
2023-04-09T02:41:38.630Z,99323.81
2023-04-09T02:44:04.744Z,99309.63
2023-04-09T02:46:30.931Z,99316.81
2023-04-09T02:48:57.040Z,99311.47
2023-04-09T02:51:23.208Z,99305.28
2023-04-09T02:53:49.286Z,99310.63
2023-04-09T02:56:15.378Z,99299.91
2023-04-09T02:58:41.505Z,99301.78
2023-04-09T03:01:07.585Z,99307.94
2023-04-09T03:03:33.766Z,99307.13
2023-04-09T03:06:00.009Z,99309.78
2023-04-09T03:08:26.119Z,99298.28
2023-04-09T03:10:52.212Z,99302.59
2023-04-09T03:13:18.323Z,99301.78
2023-04-09T03:15:44.419Z,99301.78
2023-04-09T03:18:10.508Z,99300.94
2023-04-09T03:20:36.634Z,99300.94
2023-04-09T03:23:02.710Z,99299.31
2023-04-09T03:25:28.810Z,99300.13
2023-04-09T03:27:54.980Z,99293.97
2023-04-09T03:30:21.078Z,99292.28
2023-04-09T03:32:47.238Z,99288.59
2023-04-09T03:35:13.373Z,99292.94
2023-04-09T03:37:39.461Z,99293.09
2023-04-09T03:40:05.551Z,99292.28
2023-04-09T03:42:31.666Z,99297.63
2023-04-09T03:44:57.762Z,99293.09
2023-04-09T03:47:23.871Z,99289.59
2023-04-09T03:49:49.993Z,99286.94
2023-04-09T03:52:16.078Z,99284.25
2023-04-09T03:54:42.243Z,99285.28
2023-04-09T03:57:08.874Z,99283.44
2023-04-09T03:59:34.967Z,99283.44
2023-04-09T04:02:01.159Z,99289.59
2023-04-09T04:04:27.472Z,99289.81
2023-04-09T04:06:53.613Z,99288.97
2023-04-09T04:09:19.702Z,99284.47
2023-04-09T04:11:45.819Z,99285.28
2023-04-09T04:14:11.913Z,99289.81
2023-04-09T04:16:38.003Z,99290.63
2023-04-09T04:19:04.134Z,99291.63
2023-04-09T04:21:30.222Z,99288.97
2023-04-09T04:23:56.332Z,99298.00
2023-04-09T04:26:22.457Z,99299.66
2023-04-09T04:28:48.560Z,99296.16
2023-04-09T04:31:14.701Z,99292.66
2023-04-09T04:33:40.874Z,99292.66
2023-04-09T04:36:06.961Z,99290.81
2023-04-09T04:38:33.058Z,99299.66
2023-04-09T04:40:59.175Z,99297.19
2023-04-09T04:43:25.264Z,99298.00
2023-04-09T04:45:53.544Z,99297.19
2023-04-09T04:48:19.853Z,99303.34
2023-04-09T04:50:45.951Z,99299.00
2023-04-09T04:53:12.038Z,99301.66
2023-04-09T04:55:38.165Z,99303.53
2023-04-09T04:58:04.264Z,99308.88
2023-04-09T05:00:30.365Z,99307.03
2023-04-09T05:02:57.190Z,99302.69
2023-04-09T05:05:23.516Z,99305.38
2023-04-09T05:07:49.806Z,99301.88
2023-04-09T05:10:16.158Z,99304.56
2023-04-09T05:12:42.400Z,99303.72
2023-04-09T05:15:08.520Z,99305.38
2023-04-09T05:17:34.654Z,99293.03
2023-04-09T05:20:00.768Z,99300.03
2023-04-09T05:22:26.864Z,99308.22
2023-04-09T05:24:52.981Z,99309.06
2023-04-09T05:27:19.062Z,99314.41
2023-04-09T05:29:45.160Z,99311.75
2023-04-09T05:32:11.281Z,99317.09
2023-04-09T05:34:37.386Z,99309.06
2023-04-09T05:37:03.477Z,99309.06
2023-04-09T05:39:29.593Z,99310.88
2023-04-09T05:41:55.706Z,99314.41
2023-04-09T05:44:21.822Z,99309.25
2023-04-09T05:46:47.957Z,99312.75
2023-04-09T05:49:14.065Z,99314.59
2023-04-09T05:51:40.146Z,99314.59
2023-04-09T05:54:06.298Z,99314.59
2023-04-09T05:56:32.413Z,99312.94
2023-04-09T05:58:58.515Z,99316.44
2023-04-09T06:01:24.647Z,99324.47
2023-04-09T06:03:51.055Z,99320.97
2023-04-09T06:06:17.509Z,99320.97
2023-04-09T06:08:43.650Z,99325.47
2023-04-09T06:11:09.805Z,99328.97
2023-04-09T06:13:35.909Z,99323.63
2023-04-09T06:16:02.062Z,99324.47
2023-04-09T06:18:28.231Z,99325.47
2023-04-09T06:20:54.374Z,99327.31
2023-04-09T06:23:20.480Z,99329.97
2023-04-09T06:25:46.588Z,99329.97
2023-04-09T06:28:12.704Z,99334.50
2023-04-09T06:30:38.810Z,99340.66
2023-04-09T06:33:04.923Z,99326.50
2023-04-09T06:35:31.092Z,99329.16
2023-04-09T06:37:57.263Z,99329.16
2023-04-09T06:40:23.533Z,99334.50
2023-04-09T06:42:49.700Z,99334.50
2023-04-09T06:45:15.829Z,99335.53
2023-04-09T06:47:41.962Z,99332.84
2023-04-09T06:50:08.111Z,99338.22
2023-04-09T06:52:34.230Z,99335.53
2023-04-09T06:55:00.357Z,99338.22
2023-04-09T06:57:26.469Z,99340.88
2023-04-09T06:59:52.638Z,99340.03
2023-04-09T07:02:18.775Z,99331.19
2023-04-09T07:04:44.998Z,99334.69
2023-04-09T07:07:11.211Z,99343.56
2023-04-09T07:09:37.312Z,99340.03
2023-04-09T07:12:03.401Z,99351.56
2023-04-09T07:14:29.547Z,99346.22
2023-04-09T07:16:55.659Z,99342.69
2023-04-09T07:19:21.791Z,99341.88
2023-04-09T07:21:47.909Z,99339.19
2023-04-09T07:24:14.021Z,99347.22
2023-04-09T07:26:40.131Z,99344.53
2023-04-09T07:29:06.233Z,99344.53
2023-04-09T07:31:34.597Z,99353.38
2023-04-09T07:34:01.951Z,99351.75
2023-04-09T07:36:28.073Z,99364.28
2023-04-09T07:38:54.638Z,99360.59
2023-04-09T07:41:21.120Z,99360.59
2023-04-09T07:43:47.298Z,99355.25
2023-04-09T07:46:13.414Z,99362.44
2023-04-09T07:48:39.543Z,99362.44
2023-04-09T07:51:05.687Z,99357.09
2023-04-09T07:53:31.809Z,99365.94
2023-04-09T07:55:57.912Z,99365.75
2023-04-09T07:58:24.035Z,99357.91
2023-04-09T08:00:50.131Z,99356.91
2023-04-09T08:03:16.501Z,99352.56
2023-04-09T08:05:42.885Z,99365.94
2023-04-09T08:08:08.977Z,99368.59
2023-04-09T08:10:35.083Z,99370.44
2023-04-09T08:13:01.211Z,99360.59
2023-04-09T08:15:27.320Z,99358.72
2023-04-09T08:17:53.476Z,99357.91
2023-04-09T08:20:19.643Z,99357.09
2023-04-09T08:22:45.740Z,99354.41
2023-04-09T08:25:11.852Z,99350.06
2023-04-09T08:27:37.966Z,99355.41
2023-04-09T08:30:04.130Z,99355.25
2023-04-09T08:32:30.372Z,99356.25
2023-04-09T08:34:56.542Z,99356.25
2023-04-09T08:37:22.654Z,99356.25
2023-04-09T08:39:48.764Z,99353.59
2023-04-09T08:42:14.898Z,99353.59
2023-04-09T08:44:40.996Z,99355.25
2023-04-09T08:47:07.125Z,99357.91
2023-04-09T08:49:33.267Z,99348.25
2023-04-09T08:51:59.375Z,99349.06
2023-04-09T08:54:25.477Z,99357.09
2023-04-09T08:56:51.600Z,99359.75
2023-04-09T08:59:17.690Z,99361.59
2023-04-09T09:01:43.869Z,99357.09
2023-04-09T09:04:10.153Z,99353.38
2023-04-09T09:06:36.292Z,99355.25
2023-04-09T09:09:02.387Z,99357.91
2023-04-09T09:11:28.496Z,99355.25
2023-04-09T09:13:54.612Z,99366.75
2023-04-09T09:16:20.768Z,99354.25
2023-04-09T09:18:46.996Z,99362.25
2023-04-09T09:21:13.175Z,99358.72
2023-04-09T09:23:39.258Z,99351.56
2023-04-09T09:26:05.375Z,99359.59
2023-04-09T09:28:31.462Z,99356.91
2023-04-09T09:30:57.655Z,99366.59
2023-04-09T09:33:23.776Z,99358.56
2023-04-09T09:35:50.004Z,99358.56
2023-04-09T09:38:16.242Z,99355.06
2023-04-09T09:40:42.396Z,99359.38
2023-04-09T09:43:08.507Z,99352.19
2023-04-09T09:45:34.601Z,99358.38
2023-04-09T09:48:00.891Z,99351.38
2023-04-09T09:50:27.002Z,99353.03
2023-04-09T09:52:53.098Z,99356.72
2023-04-09T09:55:19.206Z,99358.38
2023-04-09T09:57:45.288Z,99349.53
2023-04-09T10:00:11.385Z,99351.38
2023-04-09T10:02:37.579Z,99353.03
2023-04-09T10:05:03.731Z,99344.16
2023-04-09T10:07:29.825Z,99341.50
2023-04-09T10:09:56.422Z,99341.50
2023-04-09T10:12:22.525Z,99340.50
2023-04-09T10:14:48.663Z,99337.00
2023-04-09T10:17:14.781Z,99335.81
2023-04-09T10:19:40.871Z,99334.13
2023-04-09T10:22:06.977Z,99326.13
2023-04-09T10:24:33.129Z,99329.59
2023-04-09T10:26:59.238Z,99330.47
2023-04-09T10:29:26.114Z,99332.09
2023-04-09T10:31:52.271Z,99325.94
2023-04-09T10:34:18.407Z,99326.75
2023-04-09T10:36:44.565Z,99322.25
2023-04-09T10:39:10.909Z,99322.44
2023-04-09T10:41:37.041Z,99321.41
2023-04-09T10:44:03.185Z,99322.25
2023-04-09T10:46:29.356Z,99319.56
2023-04-09T10:48:55.497Z,99311.53
2023-04-09T10:51:21.615Z,99323.06
2023-04-09T10:53:47.778Z,99319.56
2023-04-09T10:56:13.873Z,99311.38
2023-04-09T10:58:40.011Z,99308.69
2023-04-09T11:01:06.123Z,99303.34
2023-04-09T11:03:32.257Z,99308.69
2023-04-09T11:05:58.388Z,99294.50
2023-04-09T11:08:24.531Z,99299.66
2023-04-09T11:10:52.188Z,99301.50
2023-04-09T11:13:18.585Z,99299.66
2023-04-09T11:15:45.295Z,99298.66
2023-04-09T11:18:11.426Z,99291.63
2023-04-09T11:20:37.513Z,99295.97
2023-04-09T11:23:03.649Z,99295.97
2023-04-09T11:25:29.754Z,99298.44
2023-04-09T11:27:55.846Z,99284.47
2023-04-09T11:30:21.967Z,99286.94
2023-04-09T11:32:48.226Z,99296.81
2023-04-09T11:35:14.459Z,99288.59
2023-04-09T11:37:40.567Z,99286.94
2023-04-09T11:40:06.668Z,99280.59
2023-04-09T11:42:32.801Z,99282.41
2023-04-09T11:44:58.939Z,99269.69
2023-04-09T11:47:25.089Z,99285.72
2023-04-09T11:49:51.223Z,99285.94
2023-04-09T11:52:17.363Z,99282.22
2023-04-09T11:54:43.486Z,99286.56
2023-04-09T11:57:09.603Z,99282.22
2023-04-09T11:59:35.740Z,99282.88
2023-04-09T12:02:01.953Z,99283.88
2023-04-09T12:04:28.257Z,99286.56
2023-04-09T12:06:54.418Z,99278.34
2023-04-09T12:09:20.508Z,99284.53
2023-04-09T12:11:46.615Z,99286.22
2023-04-09T12:14:12.738Z,99274.69
2023-04-09T12:16:38.871Z,99280.84
2023-04-09T12:19:04.996Z,99279.00
2023-04-09T12:21:31.127Z,99279.81
2023-04-09T12:23:57.217Z,99274.47
2023-04-09T12:26:23.316Z,99269.97
2023-04-09T12:28:49.859Z,99272.63
2023-04-09T12:31:16.016Z,99271.81
2023-04-09T12:33:42.159Z,99273.47
2023-04-09T12:36:08.311Z,99268.97
2023-04-09T12:38:34.511Z,99267.94
2023-04-09T12:41:00.648Z,99264.44
2023-04-09T12:43:26.785Z,99261.75
2023-04-09T12:45:52.919Z,99265.25
2023-04-09T12:48:19.060Z,99256.22
2023-04-09T12:50:45.162Z,99267.75
2023-04-09T12:53:11.263Z,99256.22
2023-04-09T12:55:37.367Z,99257.06
2023-04-09T12:58:03.567Z,99259.72
2023-04-09T13:00:29.665Z,99252.53
2023-04-09T13:02:55.893Z,99260.38
2023-04-09T13:05:22.091Z,99250.69
2023-04-09T13:07:48.186Z,99254.22
2023-04-09T13:10:14.309Z,99245.97
2023-04-09T13:12:40.513Z,99245.97
2023-04-09T13:15:06.633Z,99244.34
2023-04-09T13:17:32.847Z,99247.84
2023-04-09T13:19:59.509Z,99245.16
2023-04-09T13:22:25.609Z,99234.47
2023-04-09T13:24:51.718Z,99236.09
2023-04-09T13:27:17.853Z,99236.97
2023-04-09T13:29:43.943Z,99241.47
2023-04-09T13:32:10.029Z,99233.25
2023-04-09T13:34:36.298Z,99236.75
2023-04-09T13:37:02.398Z,99239.44
2023-04-09T13:39:28.495Z,99239.44
2023-04-09T13:41:54.610Z,99234.06
2023-04-09T13:44:20.705Z,99233.91
2023-04-09T13:46:46.812Z,99235.75
2023-04-09T13:49:12.937Z,99234.72
2023-04-09T13:51:39.023Z,99228.34
2023-04-09T13:54:06.041Z,99222.19
2023-04-09T13:56:32.310Z,99226.53
2023-04-09T13:58:58.453Z,99228.34
2023-04-09T14:01:24.616Z,99219.50
2023-04-09T14:03:51.566Z,99214.81
2023-04-09T14:06:17.924Z,99217.47
2023-04-09T14:08:44.026Z,99215.63
2023-04-09T14:11:10.147Z,99213.81
2023-04-09T14:13:36.239Z,99207.59
2023-04-09T14:16:02.369Z,99218.13
2023-04-09T14:18:28.521Z,99213.81
2023-04-09T14:20:54.609Z,99204.75
2023-04-09T14:23:20.708Z,99209.06
2023-04-09T14:25:47.340Z,99223.28
2023-04-09T14:28:13.429Z,99203.72
2023-04-09T14:30:39.524Z,99223.09
2023-04-09T14:33:05.681Z,99215.06
2023-04-09T14:35:31.833Z,99209.72
2023-04-09T14:37:57.983Z,99203.38
2023-04-09T14:40:24.109Z,99201.69
2023-04-09T14:42:50.217Z,99194.47
2023-04-09T14:45:16.309Z,99191.81
2023-04-09T14:47:42.434Z,99206.03
2023-04-09T14:50:08.545Z,99206.69
2023-04-09T14:52:34.655Z,99199.66
2023-04-09T14:55:00.777Z,99195.97
2023-04-09T14:57:26.883Z,99195.97
2023-04-09T14:59:52.981Z,99198.66
2023-04-09T15:02:19.194Z,99185.28
2023-04-09T15:04:45.441Z,99186.09
2023-04-09T15:07:11.587Z,99178.91
2023-04-09T15:09:37.711Z,99181.56
2023-04-09T15:12:03.834Z,99179.53
2023-04-09T15:14:29.942Z,99180.53
2023-04-09T15:16:56.074Z,99169.84
2023-04-09T15:19:22.161Z,99176.88
2023-04-09T15:21:48.262Z,99175.84
2023-04-09T15:24:14.387Z,99180.38
2023-04-09T15:26:40.522Z,99166.59
2023-04-09T15:29:06.649Z,99166.81
2023-04-09T15:31:32.809Z,99157.75
2023-04-09T15:33:58.962Z,99177.31
2023-04-09T15:36:25.060Z,99177.13
2023-04-09T15:38:51.532Z,99174.44
2023-04-09T15:41:17.773Z,99179.81
2023-04-09T15:43:43.872Z,99176.09
2023-04-09T15:46:10.059Z,99177.78
2023-04-09T15:48:36.197Z,99177.78
2023-04-09T15:51:02.305Z,99182.09
2023-04-09T15:53:28.437Z,99177.56
2023-04-09T15:55:54.541Z,99180.22
2023-04-09T15:58:20.652Z,99181.09
2023-04-09T16:00:46.827Z,99183.75
2023-04-09T16:03:12.941Z,99177.38
2023-04-09T16:05:39.034Z,99180.69
2023-04-09T16:08:05.292Z,99183.38
2023-04-09T16:10:31.395Z,99188.72
2023-04-09T16:12:57.566Z,99186.88
2023-04-09T16:15:23.696Z,99174.31
2023-04-09T16:17:49.804Z,99183.38
2023-04-09T16:20:15.935Z,99179.88
2023-04-09T16:22:42.042Z,99190.38
2023-04-09T16:25:08.134Z,99188.53
2023-04-09T16:27:34.248Z,99193.03
2023-04-09T16:30:00.415Z,99180.53
2023-04-09T16:32:26.551Z,99176.00
2023-04-09T16:34:52.687Z,99172.28
2023-04-09T16:37:18.801Z,99173.97
2023-04-09T16:39:44.905Z,99178.44
2023-04-09T16:42:10.998Z,99181.97
2023-04-09T16:44:37.241Z,99179.31
2023-04-09T16:47:03.681Z,99179.31
2023-04-09T16:49:29.967Z,99179.09
2023-04-09T16:51:56.116Z,99195.38
2023-04-09T16:54:22.215Z,99193.28
2023-04-09T16:56:48.381Z,99195.16
2023-04-09T16:59:14.500Z,99183.63
2023-04-09T17:01:40.731Z,99183.44
2023-04-09T17:04:06.966Z,99178.91
2023-04-09T17:06:33.102Z,99178.09
2023-04-09T17:08:59.456Z,99178.91
2023-04-09T17:11:25.547Z,99181.59
2023-04-09T17:13:52.192Z,99173.38
2023-04-09T17:16:18.451Z,99176.06
2023-04-09T17:18:44.641Z,99168.03
2023-04-09T17:21:10.759Z,99160.81
2023-04-09T17:23:36.835Z,99160.81
2023-04-09T17:26:02.936Z,99163.50
2023-04-09T17:28:29.061Z,99156.13
2023-04-09T17:30:55.202Z,99149.09
2023-04-09T17:33:21.297Z,99153.44
2023-04-09T17:35:47.464Z,99151.75
2023-04-09T17:38:13.574Z,99153.44
2023-04-09T17:40:39.685Z,99148.91
2023-04-09T17:43:05.803Z,99140.88
2023-04-09T17:45:31.921Z,99141.69
2023-04-09T17:47:58.012Z,99145.19
2023-04-09T17:50:24.157Z,99148.69
2023-04-09T17:52:50.251Z,99156.72
2023-04-09T17:55:16.337Z,99165.59
2023-04-09T17:57:42.447Z,99158.41
2023-04-09T18:00:08.543Z,99161.06
2023-04-09T18:02:34.970Z,99162.72
2023-04-09T18:05:01.401Z,99165.59
2023-04-09T18:07:27.585Z,99171.59
2023-04-09T18:09:53.673Z,99169.94
2023-04-09T18:12:19.776Z,99169.94
2023-04-09T18:14:45.876Z,99160.91
2023-04-09T18:17:12.510Z,99164.56
2023-04-09T18:19:39.714Z,99164.41
2023-04-09T18:22:05.818Z,99163.56
2023-04-09T18:24:31.930Z,99167.88
2023-04-09T18:26:58.117Z,99175.09
2023-04-09T18:29:24.251Z,99161.72
2023-04-09T18:31:50.404Z,99174.06
2023-04-09T18:34:16.576Z,99168.94
2023-04-09T18:36:42.687Z,99174.06
2023-04-09T18:39:08.794Z,99172.22
2023-04-09T18:41:34.906Z,99174.06
2023-04-09T18:44:01.016Z,99172.22
2023-04-09T18:46:27.180Z,99173.88
2023-04-09T18:48:53.524Z,99172.22
2023-04-09T18:51:20.865Z,99172.03
2023-04-09T18:53:47.099Z,99174.72
2023-04-09T18:56:13.242Z,99173.88
2023-04-09T18:58:39.346Z,99175.53
2023-04-09T19:01:05.436Z,99174.72
2023-04-09T19:03:31.712Z,99186.22
2023-04-09T19:05:57.902Z,99182.75
2023-04-09T19:08:24.024Z,99189.72
2023-04-09T19:10:50.141Z,99188.91
2023-04-09T19:13:16.285Z,99186.44
2023-04-09T19:15:42.491Z,99180.88
2023-04-09T19:18:08.751Z,99182.75
2023-04-09T19:20:34.887Z,99178.22
2023-04-09T19:23:00.997Z,99173.69
2023-04-09T19:25:27.124Z,99178.22
2023-04-09T19:27:53.244Z,99176.34
2023-04-09T19:30:19.342Z,99172.03
2023-04-09T19:32:45.494Z,99164.00
2023-04-09T19:35:11.636Z,99172.84
2023-04-09T19:37:37.794Z,99178.22
2023-04-09T19:40:03.983Z,99177.38
2023-04-09T19:42:30.069Z,99180.06
2023-04-09T19:44:56.197Z,99175.53
2023-04-09T19:47:22.359Z,99179.25
2023-04-09T19:49:48.480Z,99179.03
2023-04-09T19:52:14.591Z,99181.69
2023-04-09T19:54:40.757Z,99188.09
2023-04-09T19:57:06.872Z,99191.59
2023-04-09T19:59:32.983Z,99180.88
2023-04-09T20:01:59.228Z,99174.72
2023-04-09T20:04:25.399Z,99165.84
2023-04-09T20:06:51.507Z,99167.50
2023-04-09T20:09:17.759Z,99165.03
2023-04-09T20:11:44.886Z,99172.03
2023-04-09T20:14:10.969Z,99166.69
2023-04-09T20:16:37.109Z,99167.50
2023-04-09T20:19:03.234Z,99164.19
2023-04-09T20:21:29.326Z,99157.00
2023-04-09T20:23:55.499Z,99159.69
2023-04-09T20:26:21.623Z,99159.69
2023-04-09T20:28:47.702Z,99154.50
2023-04-09T20:31:13.816Z,99158.84
2023-04-09T20:33:39.946Z,99157.00
2023-04-09T20:36:06.073Z,99157.00
2023-04-09T20:38:32.252Z,99159.69
2023-04-09T20:40:58.346Z,99156.16
2023-04-09T20:43:24.433Z,99147.31
2023-04-09T20:45:50.619Z,99149.97
2023-04-09T20:48:16.783Z,99151.84
2023-04-09T20:50:42.905Z,99160.69
2023-04-09T20:53:09.017Z,99167.88
2023-04-09T20:55:35.107Z,99159.88
2023-04-09T20:58:01.210Z,99164.41
2023-04-09T21:00:27.329Z,99175.09
2023-04-09T21:02:53.664Z,99163.56
2023-04-09T21:05:23.254Z,99158.22
2023-04-09T21:07:50.188Z,99159.03
2023-04-09T21:10:16.296Z,99160.91
2023-04-09T21:12:42.411Z,99151.00
2023-04-09T21:15:08.550Z,99159.03
2023-04-09T21:17:34.815Z,99161.72
2023-04-09T21:20:01.024Z,99150.38
2023-04-09T21:22:27.164Z,99152.00
2023-04-09T21:24:53.254Z,99144.84
2023-04-09T21:27:19.342Z,99144.00
2023-04-09T21:29:45.453Z,99144.00
2023-04-09T21:32:11.557Z,99145.84
2023-04-09T21:34:37.643Z,99138.63
2023-04-09T21:37:03.741Z,99140.50
2023-04-09T21:39:29.859Z,99133.28
2023-04-09T21:41:56.004Z,99137.81
2023-04-09T21:44:22.493Z,99137.81
2023-04-09T21:46:48.585Z,99140.66
2023-04-09T21:49:14.769Z,99130.81
2023-04-09T21:51:40.887Z,99134.31
2023-04-09T21:54:07.071Z,99131.63
2023-04-09T21:56:33.181Z,99132.66
2023-04-09T21:58:59.287Z,99135.31
2023-04-09T22:01:29.552Z,99132.66
2023-04-09T22:03:55.974Z,99131.81
2023-04-09T22:06:22.148Z,99132.66
2023-04-09T22:08:55.495Z,99132.66
2023-04-09T22:11:23.180Z,99131.00
2023-04-09T22:13:49.274Z,99131.00
2023-04-09T22:16:15.388Z,99127.50
2023-04-09T22:18:41.562Z,99131.00
2023-04-09T22:21:07.660Z,99128.31
2023-04-09T22:23:33.785Z,99125.66
2023-04-09T22:25:59.895Z,99125.66
2023-04-09T22:28:25.987Z,99133.69
2023-04-09T22:30:52.089Z,99130.19
2023-04-09T22:33:18.703Z,99132.84
2023-04-09T22:35:44.882Z,99130.19
2023-04-09T22:38:11.112Z,99138.22
2023-04-09T22:40:37.245Z,99138.38
2023-04-09T22:43:03.365Z,99130.34
2023-04-09T22:45:29.455Z,99134.72
2023-04-09T22:47:55.615Z,99127.69
2023-04-09T22:50:21.754Z,99127.69
2023-04-09T22:52:47.866Z,99130.34
2023-04-09T22:55:13.982Z,99123.38
2023-04-09T22:57:40.089Z,99124.19
2023-04-09T23:00:06.190Z,99118.00
2023-04-09T23:02:32.442Z,99120.69
2023-04-09T23:05:00.857Z,99129.72
2023-04-09T23:07:26.955Z,99139.41
2023-04-09T23:09:53.051Z,99145.78
2023-04-09T23:12:19.265Z,99148.44
2023-04-09T23:14:46.198Z,99159.16
2023-04-09T23:17:13.704Z,99162.88
2023-04-09T23:19:39.826Z,99169.84
2023-04-09T23:22:05.924Z,99162.88
2023-04-09T23:24:32.050Z,99160.19
2023-04-09T23:26:58.138Z,99165.53
2023-04-09T23:29:24.258Z,99155.84
2023-04-09T23:31:50.400Z,99157.69
2023-04-09T23:34:16.519Z,99158.50
2023-04-09T23:36:42.604Z,99159.38
2023-04-09T23:39:08.706Z,99150.47
2023-04-09T23:41:34.799Z,99143.50
2023-04-09T23:44:00.889Z,99135.47
2023-04-09T23:46:27.024Z,99144.31
2023-04-09T23:48:53.144Z,99138.13
2023-04-09T23:51:19.243Z,99133.81
2023-04-09T23:53:45.350Z,99136.50
2023-04-09T23:56:11.438Z,99128.66
2023-04-09T23:58:37.521Z,99123.31
